Time;durP1;ratioP1;P1;durP2;ratioP2;P2;SDS_P1;SDS_P2;PMS_P1;PMS_P2;Temp;Humidity;BMP_temperature;BMP_pressure;BME280_temperature;BME280_humidity;BME280_pressure;Samples;Min_cycle;Max_cycle;Signal;HPM_P1;HPM_P2
2022/08/31 00:07:05;;;;;;;1.65;1.33;;;18.70;63.60;20.80;94027.00;;;;10451521;28;45395;-59
2022/08/31 00:12:25;;;;;;;2.80;1.40;;;18.70;63.60;20.80;94040.00;;;;10429074;28;45365;-60
2022/08/31 00:17:46;;;;;;;1.67;1.13;;;18.70;63.50;20.80;94041.00;;;;10427433;28;45279;-59
2022/08/31 00:23:11;;;;;;;1.42;1.17;;;18.70;63.50;20.80;94039.00;;;;10428782;28;45885;-59
2022/08/31 00:28:32;;;;;;;1.13;1.02;;;18.70;63.50;20.80;94039.00;;;;10427889;28;45772;-58
2022/08/31 00:33:52;;;;;;;2.22;1.33;;;18.70;63.50;20.80;94039.00;;;;10428298;28;45213;-59
2022/08/31 00:39:14;;;;;;;1.80;1.30;;;18.70;63.60;20.80;94047.00;;;;10427978;28;45894;-60
2022/08/31 00:44:35;;;;;;;1.65;1.20;;;18.70;63.80;20.80;94034.00;;;;10428226;28;45189;-58
2022/08/31 00:49:56;;;;;;;1.42;1.17;;;18.70;63.80;20.80;94049.00;;;;10440329;28;45177;-60
2022/08/31 00:55:23;;;;;;;2.47;1.30;;;18.70;63.90;20.80;94044.00;;;;10430652;28;45212;-59
2022/08/31 01:00:44;;;;;;;1.80;1.23;;;18.70;64.20;20.80;94043.00;;;;10464489;28;45352;-59
2022/08/31 01:06:06;;;;;;;2.42;1.27;;;18.70;64.20;20.80;94053.00;;;;10445342;28;46052;-60
2022/08/31 01:11:29;;;;;;;4.85;2.97;;;18.70;64.30;20.80;94045.00;;;;10426976;28;45333;-62
2022/08/31 01:16:53;;;;;;;6.30;3.53;;;18.70;64.50;20.80;94048.00;;;;10427313;28;45274;-61
2022/08/31 01:22:30;;;;;;;5.47;2.97;;;18.70;64.40;20.80;94050.00;;;;10427456;28;45139;-58
2022/08/31 01:27:53;;;;;;;5.43;2.88;;;18.70;64.60;20.80;94048.00;;;;10461438;28;45155;-60
2022/08/31 01:33:13;;;;;;;4.22;2.33;;;18.70;64.40;20.80;94043.00;;;;10476091;28;45207;-62
2022/08/31 01:38:36;;;;;;;3.45;2.08;;;18.70;64.40;20.70;94035.00;;;;10461927;28;45182;-58
2022/08/31 01:43:58;;;;;;;2.78;2.00;;;18.70;64.50;20.80;94052.00;;;;10463843;28;45707;-58
2022/08/31 01:49:22;;;;;;;2.85;1.80;;;18.70;64.50;20.70;94046.00;;;;10475607;28;45158;-60
2022/08/31 01:54:43;;;;;;;3.30;1.80;;;18.70;64.50;20.80;94053.00;;;;10474596;28;45162;-60
2022/08/31 02:00:09;;;;;;;2.42;1.70;;;18.70;64.50;20.80;94050.00;;;;10434011;28;45865;-59
2022/08/31 02:05:30;;;;;;;2.10;1.40;;;18.70;64.40;20.80;94051.00;;;;10446790;28;45341;-60
2022/08/31 02:10:51;;;;;;;1.55;1.40;;;18.70;64.40;20.80;94039.00;;;;10433213;28;45122;-60
2022/08/31 02:16:13;;;;;;;5.25;1.60;;;18.70;64.60;20.80;94053.00;;;;10461360;28;45780;-59
2022/08/31 02:21:34;;;;;;;3.88;1.40;;;18.70;65.40;20.70;94051.00;;;;10475327;28;45295;-60
2022/08/31 02:26:54;;;;;;;1.80;1.50;;;18.70;65.50;20.70;94045.00;;;;10474110;28;45261;-58
2022/08/31 02:32:16;;;;;;;1.52;1.13;;;18.70;64.70;20.70;94059.00;;;;10460455;28;45246;-59
2022/08/31 02:37:37;;;;;;;2.92;1.30;;;18.70;64.70;20.70;94066.00;;;;10431396;28;45424;-58
2022/08/31 02:42:57;;;;;;;1.80;1.23;;;18.70;64.70;20.70;94073.00;;;;10431930;28;45413;-59
2022/08/31 02:48:20;;;;;;;1.73;1.20;;;18.60;64.90;20.70;94053.00;;;;10431572;28;45226;-58
2022/08/31 02:53:41;;;;;;;3.45;1.48;;;18.70;65.20;20.70;94068.00;;;;10461841;28;45279;-57
2022/08/31 02:59:01;;;;;;;2.13;1.50;;;18.60;65.10;20.70;94077.00;;;;10473015;28;45178;-59
2022/08/31 03:04:23;;;;;;;3.42;1.38;;;18.60;65.20;20.70;94078.00;;;;10439274;28;45177;-59
2022/08/31 03:09:43;;;;;;;2.15;1.27;;;18.70;65.20;20.70;94063.00;;;;10436634;28;45298;-58
2022/08/31 03:15:06;;;;;;;1.73;1.30;;;18.70;65.30;20.70;94060.00;;;;10430687;28;45285;-59
2022/08/31 03:20:29;;;;;;;2.25;1.48;;;18.70;65.30;20.70;94076.00;;;;10430579;28;45264;-59
2022/08/31 03:25:49;;;;;;;2.13;1.50;;;18.70;65.50;20.70;94071.00;;;;10429837;28;45163;-59
2022/08/31 03:31:10;;;;;;;1.52;1.30;;;18.70;65.70;20.70;94073.00;;;;10429970;28;45167;-58
2022/08/31 03:36:32;;;;;;;2.10;1.58;;;18.70;65.70;20.70;94059.00;;;;10429846;28;45776;-60
2022/08/31 03:41:53;;;;;;;2.55;1.42;;;18.70;65.70;20.70;94060.00;;;;10441868;28;45675;-58
2022/08/31 03:47:15;;;;;;;2.20;1.60;;;18.60;65.90;20.70;94069.00;;;;10471492;28;45773;-60
2022/08/31 03:52:38;;;;;;;2.05;1.50;;;18.70;66.10;20.70;94068.00;;;;10471992;28;45163;-60
2022/08/31 03:57:59;;;;;;;2.22;1.40;;;18.70;65.90;20.70;94061.00;;;;10471725;28;45145;-60
2022/08/31 04:03:20;;;;;;;2.35;1.42;;;18.60;66.00;20.80;94060.00;;;;10450707;28;44908;-59
2022/08/31 04:08:42;;;;;;;2.05;1.48;;;18.70;65.90;20.70;94059.00;;;;10441911;28;45854;-60
2022/08/31 04:14:02;;;;;;;2.58;1.40;;;18.70;66.10;20.70;94044.00;;;;10428970;28;45134;-61
2022/08/31 04:19:23;;;;;;;2.03;1.60;;;18.60;66.30;20.70;94061.00;;;;10433708;28;45123;-59
2022/08/31 04:24:45;;;;;;;2.72;1.52;;;18.60;66.40;20.70;94062.00;;;;10435612;28;45175;-57
2022/08/31 04:30:08;;;;;;;2.35;1.75;;;18.70;66.30;20.70;94053.00;;;;10435139;28;45223;-60
2022/08/31 04:35:29;;;;;;;2.17;1.50;;;18.70;66.40;20.70;94069.00;;;;10435252;28;45282;-59
2022/08/31 04:40:50;;;;;;;2.63;1.60;;;18.70;66.40;20.70;94075.00;;;;10437832;28;45273;-59
2022/08/31 04:46:12;;;;;;;2.20;1.40;;;18.70;66.30;20.70;94080.00;;;;10477019;28;45166;-59
2022/08/31 04:51:34;;;;;;;2.63;1.75;;;18.70;66.50;20.70;94086.00;;;;10477470;28;45886;-59
2022/08/31 04:56:57;;;;;;;3.25;1.35;;;18.70;66.40;20.70;94095.00;;;;10461167;28;45146;-60
2022/08/31 05:02:18;;;;;;;2.50;1.73;;;18.70;66.50;20.70;94101.00;;;;10467298;28;45687;-60
2022/08/31 05:07:38;;;;;;;3.67;1.73;;;18.60;66.90;20.70;94101.00;;;;10478781;28;45880;-59
2022/08/31 05:13:01;;;;;;;2.75;1.70;;;18.60;67.20;20.60;94090.00;;;;10468889;28;45499;-59
2022/08/31 05:18:21;;;;;;;1.75;1.30;;;18.50;67.30;20.60;94102.00;;;;10442319;28;45105;-59
2022/08/31 05:23:43;;;;;;;2.75;1.65;;;18.50;67.40;20.60;94108.00;;;;10465426;28;45142;-59
2022/08/31 05:29:08;;;;;;;1.65;1.42;;;18.50;67.40;20.60;94115.00;;;;10482997;28;45142;-59
2022/08/31 05:34:29;;;;;;;2.40;1.38;;;18.50;67.30;20.60;94116.00;;;;10483259;28;45210;-57
2022/08/31 05:39:49;;;;;;;2.22;1.60;;;18.50;67.20;20.60;94122.00;;;;10468720;28;45213;-59
2022/08/31 05:45:11;;;;;;;2.47;1.60;;;18.50;67.60;20.60;94128.00;;;;10482858;28;45261;-60
2022/08/31 05:50:31;;;;;;;3.00;1.60;;;18.50;67.70;20.60;94131.00;;;;10482143;28;45837;-59
2022/08/31 05:55:59;;;;;;;3.20;1.77;;;18.50;67.60;20.60;94126.00;;;;10481432;28;45881;-59
2022/08/31 06:01:26;;;;;;;2.60;1.75;;;18.50;67.50;20.60;94116.00;;;;10453808;28;45288;-59
2022/08/31 06:06:47;;;;;;;2.83;1.63;;;18.50;67.50;20.50;94112.00;;;;10454523;28;45202;-60
2022/08/31 06:12:08;;;;;;;3.40;1.38;;;18.40;67.20;20.60;94113.00;;;;10442932;28;45310;-57
2022/08/31 06:17:31;;;;;;;1.60;1.13;;;18.50;66.80;20.50;94107.00;;;;10436816;28;45248;-58
2022/08/31 06:22:52;;;;;;;1.23;0.90;;;18.40;66.10;20.50;94127.00;;;;10452474;28;45181;-58
2022/08/31 06:28:13;;;;;;;1.65;0.90;;;18.40;65.10;20.50;94132.00;;;;10439303;28;45222;-58
2022/08/31 06:33:36;;;;;;;1.10;0.77;;;18.40;64.60;20.50;94115.00;;;;10453079;28;45162;-59
2022/08/31 06:38:59;;;;;;;1.00;0.70;;;18.40;64.00;20.50;94135.00;;;;10452421;28;45410;-59
2022/08/31 06:44:21;;;;;;;1.08;0.70;;;18.40;63.20;20.50;94137.00;;;;10455728;28;45217;-58
2022/08/31 06:49:43;;;;;;;1.67;0.80;;;18.40;63.10;20.50;94139.00;;;;10449311;28;45796;-59
2022/08/31 06:55:04;;;;;;;1.10;0.73;;;18.40;62.80;20.50;94152.00;;;;10465245;28;45208;-60
2022/08/31 07:00:24;;;;;;;1.33;0.80;;;18.40;62.50;20.40;94152.00;;;;10450377;28;45287;-60
2022/08/31 07:05:46;;;;;;;0.60;0.50;;;18.30;62.50;20.50;94152.00;;;;10461530;28;45846;-60
2022/08/31 07:11:12;;;;;;;2.53;0.70;;;18.30;62.40;20.50;94158.00;;;;10474634;28;45207;-59
2022/08/31 07:16:33;;;;;;;1.30;0.70;;;18.40;62.20;20.50;94161.00;;;;10446282;28;45159;-60
2022/08/31 07:21:58;;;;;;;1.10;0.82;;;18.40;62.20;20.50;94167.00;;;;10435881;28;45215;-59
2022/08/31 07:27:19;;;;;;;1.10;0.90;;;18.40;62.60;20.30;94173.00;;;;10448363;28;45252;-59
2022/08/31 07:32:40;;;;;;;1.40;0.90;;;18.30;63.00;20.50;94181.00;;;;10449161;28;45804;-59
2022/08/31 07:43:42;;;;;;;1.23;0.80;;;18.40;62.60;20.50;94193.00;;;;10440175;28;45203;-60
2022/08/31 07:49:07;;;;;;;2.55;0.70;;;18.40;62.40;20.50;94193.00;;;;10461068;28;45824;-58
2022/08/31 07:54:30;;;;;;;2.55;0.88;;;18.50;62.10;20.50;94197.00;;;;10434357;28;45216;-61
2022/08/31 07:59:54;;;;;;;1.58;0.70;;;18.50;61.90;20.50;94206.00;;;;10470900;28;45861;-60
2022/08/31 08:05:21;;;;;;;1.30;0.70;;;18.50;61.70;20.50;94188.00;;;;10434124;28;45917;-60
2022/08/31 08:10:47;;;;;;;1.42;0.90;;;18.40;61.80;20.50;94200.00;;;;10429095;28;45254;-59
2022/08/31 08:16:07;;;;;;;1.98;0.90;;;18.40;61.40;20.40;94183.00;;;;10430620;28;45703;-60
2022/08/31 08:21:28;;;;;;;1.10;0.82;;;18.40;61.00;20.40;94198.00;;;;10430517;28;45359;-61
2022/08/31 08:26:51;;;;;;;1.25;0.77;;;18.30;61.10;20.40;94202.00;;;;10441801;28;45218;-62
2022/08/31 08:32:12;;;;;;;1.40;0.90;;;18.30;60.70;20.40;94211.00;;;;10428633;28;45780;-60
2022/08/31 08:37:33;;;;;;;1.27;0.82;;;18.30;60.40;20.40;94204.00;;;;10454033;28;45362;-62
2022/08/31 08:42:54;;;;;;;1.55;0.95;;;18.30;60.30;20.40;94205.00;;;;10427998;28;45123;-59
2022/08/31 08:48:20;;;;;;;1.15;0.77;;;18.30;60.50;20.40;94217.00;;;;10448552;28;45758;-62
2022/08/31 08:53:43;;;;;;;2.13;0.80;;;18.30;60.80;20.40;94225.00;;;;10453054;28;45208;-60
2022/08/31 08:59:06;;;;;;;1.55;0.82;;;18.30;60.80;20.40;94214.00;;;;10444146;28;45246;-60
2022/08/31 09:04:47;;;;;;;1.38;0.95;;;18.30;61.00;20.40;94224.00;;;;10449756;28;45191;-61
2022/08/31 09:10:19;;;;;;;1.25;0.77;;;18.30;61.30;20.40;94209.00;;;;10427563;28;45301;-59
2022/08/31 09:15:56;;;;;;;1.35;0.98;;;18.30;61.20;20.40;94234.00;;;;10453043;28;45715;-60
2022/08/31 09:21:21;;;;;;;1.37;0.77;;;18.30;61.60;20.40;94227.00;;;;10451383;28;45857;-60
2022/08/31 09:27:16;;;;;;;0.98;0.77;;;18.30;61.90;20.40;94231.00;;;;10440600;28;45278;-60
2022/08/31 09:32:38;;;;;;;1.85;0.90;;;18.30;61.50;20.40;94243.00;;;;10455446;28;45298;-60
2022/08/31 09:38:01;;;;;;;2.45;0.77;;;18.30;61.90;20.40;94245.00;;;;10458619;28;45874;-61
2022/08/31 09:43:35;;;;;;;1.98;0.80;;;18.30;62.60;20.40;94233.00;;;;10426430;28;45209;-61
2022/08/31 09:48:59;;;;;;;1.30;0.80;;;18.30;62.20;20.40;94215.00;;;;10447767;28;45858;-59
2022/08/31 10:00:02;;;;;;;1.33;0.70;;;18.30;61.10;20.40;94229.00;;;;10447516;28;45411;-61
2022/08/31 10:05:39;;;;;;;1.50;0.80;;;18.30;61.00;20.40;94212.00;;;;10442834;28;45696;-61
2022/08/31 10:11:09;;;;;;;1.52;0.70;;;18.30;60.90;20.50;94218.00;;;;10468849;28;45183;-60
2022/08/31 10:16:35;;;;;;;1.20;0.80;;;18.40;60.90;20.50;94219.00;;;;10451406;28;45898;-59
2022/08/31 10:22:03;;;;;;;1.27;0.73;;;18.40;60.80;20.50;94210.00;;;;10472962;28;45733;-60
2022/08/31 10:27:30;;;;;;;1.02;0.70;;;18.40;61.00;20.50;94216.00;;;;10452108;28;45708;-58
2022/08/31 10:32:58;;;;;;;1.23;0.82;;;18.40;61.00;20.50;94209.00;;;;10486716;28;45153;-58
2022/08/31 10:38:27;;;;;;;1.38;0.90;;;18.50;60.80;20.50;94217.00;;;;10440975;28;45249;-59
2022/08/31 10:43:54;;;;;;;1.13;0.85;;;18.50;60.90;20.50;94215.00;;;;10456478;28;45337;-59
2022/08/31 10:49:14;;;;;;;1.20;0.90;;;18.50;60.80;20.50;94215.00;;;;10449156;28;45165;-58
2022/08/31 10:54:43;;;;;;;1.52;0.70;;;18.50;61.00;20.60;94208.00;;;;10432390;28;45889;-59
2022/08/31 11:00:40;;;;;;;1.15;0.82;;;18.50;60.90;20.60;94200.00;;;;10431454;28;45467;-60
2022/08/31 11:05:56;;;;;;;1.48;1.05;;;18.60;60.70;20.60;94196.00;;;;10430292;28;45695;-59
2022/08/31 11:11:24;;;;;;;;;;;18.60;61.00;20.60;94201.00;;;;10451850;28;45824;-61
2022/08/31 11:17:09;;;;;;;4.40;1.00;;;18.60;61.00;20.60;94178.00;;;;10452278;28;45327;-60
2022/08/31 11:23:04;;;;;;;1.63;1.00;;;18.60;61.20;20.60;94177.00;;;;10463800;28;45248;-60
2022/08/31 11:28:33;;;;;;;1.00;0.77;;;18.70;61.20;20.70;94166.00;;;;10472620;28;45218;-58
2022/08/31 11:33:59;;;;;;;1.17;0.70;;;18.70;61.10;20.70;94185.00;;;;10458811;28;45220;-60
2022/08/31 11:39:35;;;;;;;1.00;0.82;;;18.80;61.30;20.70;94184.00;;;;10449593;28;45825;-60
2022/08/31 11:45:08;;;;;;;1.55;0.90;;;18.70;61.30;20.70;94162.00;;;;10455764;28;45188;-59
2022/08/31 11:51:06;;;;;;;1.23;0.90;;;18.80;61.30;20.70;94164.00;;;;10452075;28;45854;-60
2022/08/31 11:56:35;;;;;;;1.70;0.98;;;18.80;61.50;20.70;94150.00;;;;10456429;28;45277;-58
2022/08/31 12:01:59;;;;;;;1.45;0.90;;;18.70;61.50;20.80;94154.00;;;;10462964;28;45765;-60
2022/08/31 12:07:27;;;;;;;1.50;1.00;;;18.80;61.30;20.80;94173.00;;;;10428421;28;45240;-60
2022/08/31 12:13:21;;;;;;;1.65;1.05;;;18.80;61.20;20.90;94160.00;;;;10429762;28;45503;-59
2022/08/31 12:19:00;;;;;;;2.42;1.00;;;18.80;61.10;20.90;94148.00;;;;10443057;28;45137;-58
2022/08/31 12:24:32;;;;;;;2.42;1.13;;;18.80;61.00;20.90;94163.00;;;;10429188;28;45111;-59
2022/08/31 12:30:16;;;;;;;2.97;1.35;;;18.80;60.90;20.90;94172.00;;;;10428976;28;45182;-59
2022/08/31 12:35:39;;;;;;;7.32;2.78;;;18.80;61.00;20.90;94164.00;;;;10428538;28;45210;-59
2022/08/31 12:40:59;;;;;;;8.82;2.95;;;18.80;60.90;20.90;94177.00;;;;10428609;28;45886;-60
2022/08/31 12:46:44;;;;;;;8.90;3.00;;;18.80;60.90;20.90;94163.00;;;;10437027;28;45806;-59
2022/08/31 12:52:19;;;;;;;10.50;3.58;;;18.90;60.90;20.90;94173.00;;;;10434676;28;45210;-60
2022/08/31 12:57:55;;;;;;;10.57;3.22;;;18.90;61.70;20.90;94180.00;;;;10428351;28;45200;-58
2022/08/31 13:03:23;;;;;;;7.93;2.72;;;18.90;61.80;20.90;94155.00;;;;10437053;28;45159;-60
2022/08/31 13:08:48;;;;;;;10.68;2.90;;;18.90;62.00;20.90;94156.00;;;;10428035;28;45166;-60
2022/08/31 13:14:14;;;;;;;5.32;2.50;;;18.90;62.10;21.00;94166.00;;;;10427611;28;45788;-59
2022/08/31 13:19:36;;;;;;;7.30;2.72;;;18.90;62.10;21.00;94158.00;;;;10456246;28;45380;-59
2022/08/31 13:25:32;;;;;;;6.88;2.63;;;18.90;62.30;21.00;94156.00;;;;10432210;28;45143;-58
2022/08/31 13:30:59;;;;;;;6.28;2.22;;;18.90;62.20;21.00;94146.00;;;;10463797;28;45974;-59
2022/08/31 13:36:31;;;;;;;6.18;2.30;;;18.90;62.30;21.00;94143.00;;;;10471578;28;45703;-62
2022/08/31 13:42:04;;;;;;;5.78;1.95;;;19.00;61.90;21.10;94135.00;;;;10438948;28;45143;-62
2022/08/31 13:47:29;;;;;;;5.18;1.95;;;19.00;61.60;21.10;94145.00;;;;10463647;28;45186;-66
2022/08/31 13:52:53;;;;;;;4.93;1.90;;;19.10;62.00;21.20;94141.00;;;;10453879;28;45480;-65
2022/08/31 13:58:28;;;;;;;4.82;1.52;;;19.10;63.00;21.20;94132.00;;;;10461531;28;45428;-58
2022/08/31 14:03:55;;;;;;;2.95;1.73;;;19.20;62.20;21.20;94135.00;;;;10451027;28;45207;-59
2022/08/31 14:09:17;;;;;;;3.55;1.60;;;19.20;62.30;21.20;94137.00;;;;10432285;28;45234;-59
2022/08/31 14:14:42;;;;;;;4.50;1.40;;;19.10;62.30;21.20;94137.00;;;;10462977;28;45194;-59
2022/08/31 14:20:32;;;;;;;5.65;1.83;;;19.20;62.60;21.20;94138.00;;;;10469558;28;45240;-59
2022/08/31 14:25:55;;;;;;;6.57;1.50;;;19.10;62.50;21.20;94129.00;;;;10432021;28;45870;-59
2022/08/31 14:31:24;;;;;;;4.43;1.60;;;19.20;62.80;21.20;94119.00;;;;10432260;28;45233;-59
2022/08/31 14:36:51;;;;;;;2.88;1.27;;;19.10;62.80;21.10;94136.00;;;;10430775;28;45236;-59
2022/08/31 14:42:17;;;;;;;6.22;1.73;;;19.10;62.90;21.10;94145.00;;;;10462061;28;45284;-58
2022/08/31 14:47:41;;;;;;;3.47;2.10;;;19.10;62.70;21.20;94141.00;;;;10471134;28;45473;-58
2022/08/31 14:53:02;;;;;;;3.10;1.38;;;19.10;62.90;21.20;94126.00;;;;10432875;28;45313;-59
2022/08/31 14:58:22;;;;;;;3.28;1.30;;;19.10;63.00;21.20;94130.00;;;;10460810;28;45800;-59
2022/08/31 15:03:44;;;;;;;2.22;1.17;;;19.10;63.00;21.20;94145.00;;;;10451204;28;45200;-59
2022/08/31 15:09:05;;;;;;;2.30;1.20;;;19.10;63.00;21.10;94148.00;;;;10431988;28;45249;-59
2022/08/31 15:14:25;;;;;;;3.53;1.35;;;19.10;62.70;21.20;94144.00;;;;10431870;28;45167;-59
2022/08/31 15:19:53;;;;;;;2.15;1.10;;;19.10;62.80;21.20;94145.00;;;;10438221;28;45197;-56
2022/08/31 15:25:17;;;;;;;3.40;1.30;;;19.10;62.50;21.20;94142.00;;;;10434467;28;45239;-56
2022/08/31 15:30:39;;;;;;;2.78;1.33;;;19.10;62.50;21.20;94137.00;;;;10454336;28;45137;-56
2022/08/31 15:36:07;;;;;;;3.10;1.55;;;19.10;62.70;21.20;94130.00;;;;10433966;28;45200;-56
2022/08/31 15:41:28;;;;;;;3.70;1.52;;;19.10;62.60;21.20;94130.00;;;;10434733;28;45347;-56
2022/08/31 15:52:31;;;;;;;8.60;2.67;;;19.10;62.40;21.30;94091.00;;;;10434268;28;45332;-56
2022/08/31 15:57:53;;;;;;;12.45;3.80;;;19.20;62.40;21.30;94088.00;;;;10456318;28;45317;-55
2022/08/31 16:03:14;;;;;;;10.10;2.97;;;19.20;61.60;21.30;94097.00;;;;10456066;28;45233;-56
2022/08/31 16:08:38;;;;;;;8.70;3.33;;;19.30;61.70;21.30;94099.00;;;;10433375;28;45138;-56
2022/08/31 16:13:58;;;;;;;8.38;3.15;;;19.30;61.70;21.30;94086.00;;;;10432563;28;45319;-56
2022/08/31 16:19:19;;;;;;;7.32;2.53;;;19.30;61.60;21.30;94070.00;;;;10432680;28;45218;-56
2022/08/31 16:24:43;;;;;;;5.72;2.28;;;19.20;61.70;21.30;94070.00;;;;10432604;28;45855;-56
2022/08/31 16:30:05;;;;;;;6.25;2.10;;;19.20;62.00;21.30;94064.00;;;;10457586;28;45344;-56
2022/08/31 16:35:26;;;;;;;4.25;2.00;;;19.20;62.10;21.30;94059.00;;;;10432870;28;45142;-56
2022/08/31 16:40:48;;;;;;;5.50;2.20;;;19.30;62.10;21.30;94071.00;;;;10453030;28;45146;-54
2022/08/31 16:46:11;;;;;;;6.50;2.10;;;19.20;62.00;21.40;94066.00;;;;10469250;28;45245;-55
2022/08/31 16:51:32;;;;;;;4.38;2.05;;;19.30;62.00;21.40;94049.00;;;;10470463;28;45334;-54
2022/08/31 16:56:56;;;;;;;5.30;1.90;;;19.30;61.80;21.40;94068.00;;;;10468702;28;45415;-57
2022/08/31 17:02:18;;;;;;;5.60;2.13;;;19.30;61.70;21.40;94064.00;;;;10458867;28;45210;-57
2022/08/31 17:07:41;;;;;;;3.80;1.60;;;19.30;61.60;21.40;94053.00;;;;10443494;28;45727;-57
2022/08/31 17:13:03;;;;;;;4.40;1.77;;;19.30;61.60;21.40;94056.00;;;;10428876;28;45160;-57
2022/08/31 17:18:25;;;;;;;3.83;1.70;;;19.30;61.60;21.40;94073.00;;;;10428865;28;45246;-57
2022/08/31 17:23:50;;;;;;;5.93;2.00;;;19.30;61.60;21.40;94062.00;;;;10439711;28;45456;-55
2022/08/31 17:29:11;;;;;;;3.65;1.52;;;19.30;62.50;21.40;94075.00;;;;10428277;28;45274;-57
2022/08/31 17:34:34;;;;;;;3.95;1.55;;;19.30;61.50;21.40;94074.00;;;;10427659;28;45175;-56
2022/08/31 17:39:55;;;;;;;3.35;1.65;;;19.30;61.40;21.40;94068.00;;;;10427700;28;45897;-56
2022/08/31 17:45:20;;;;;;;3.45;1.42;;;19.30;61.60;21.40;94076.00;;;;10427467;28;45178;-57
2022/08/31 17:50:42;;;;;;;4.30;1.88;;;19.30;61.70;21.40;94074.00;;;;10427144;28;45349;-57
2022/08/31 17:56:05;;;;;;;3.92;1.50;;;19.30;61.70;21.40;94081.00;;;;10435556;28;45217;-57
2022/08/31 18:01:29;;;;;;;4.43;1.73;;;19.30;61.70;21.40;94098.00;;;;10424337;28;45147;-55
2022/08/31 18:06:53;;;;;;;2.97;1.50;;;19.20;61.70;21.40;94104.00;;;;10438949;28;45218;-56
2022/08/31 18:12:16;;;;;;;4.63;1.83;;;19.20;61.80;21.30;94114.00;;;;10439309;28;45285;-57
2022/08/31 18:17:39;;;;;;;3.00;1.63;;;19.20;61.80;21.30;94105.00;;;;10433684;28;45104;-55
2022/08/31 18:23:00;;;;;;;4.18;1.73;;;19.20;61.80;21.30;94107.00;;;;10438328;28;45185;-57
2022/08/31 18:28:20;;;;;;;4.30;1.80;;;19.20;61.80;21.40;94106.00;;;;10456089;28;45875;-56
2022/08/31 18:33:50;;;;;;;5.43;2.00;;;19.20;61.70;21.30;94108.00;;;;10448305;28;45126;-56
2022/08/31 18:39:14;;;;;;;4.32;1.83;;;19.20;61.60;21.30;94109.00;;;;10462213;28;45479;-56
2022/08/31 18:50:16;;;;;;;6.05;1.90;;;19.20;61.70;21.30;94124.00;;;;10473417;28;45256;-55
2022/08/31 18:55:39;;;;;;;4.57;1.83;;;19.20;61.70;21.30;94131.00;;;;10472512;28;45072;-56
2022/08/31 19:00:59;;;;;;;5.00;1.90;;;19.20;61.70;21.30;94127.00;;;;10472895;28;45429;-57
2022/08/31 19:06:24;;;;;;;4.57;1.70;;;19.20;61.70;21.30;94122.00;;;;10440872;28;45217;-57
2022/08/31 19:11:48;;;;;;;4.03;1.75;;;19.20;61.70;21.30;94130.00;;;;10441828;28;45504;-57
2022/08/31 19:17:09;;;;;;;4.28;1.60;;;19.20;61.70;21.30;94107.00;;;;10431732;28;45170;-59
2022/08/31 19:22:31;;;;;;;5.78;2.00;;;19.20;61.70;21.30;94115.00;;;;10431633;28;45780;-57
2022/08/31 19:27:53;;;;;;;4.15;1.88;;;19.20;61.70;21.30;94102.00;;;;10462245;28;45241;-58
2022/08/31 19:33:15;;;;;;;3.90;1.58;;;19.20;61.70;21.30;94112.00;;;;10465772;28;45396;-55
2022/08/31 19:38:37;;;;;;;2.97;1.70;;;19.20;61.70;21.30;94107.00;;;;10431431;28;45217;-57
2022/08/31 19:44:01;;;;;;;3.22;1.70;;;19.10;61.70;21.30;94097.00;;;;10430556;28;45885;-57
2022/08/31 19:49:22;;;;;;;4.20;1.50;;;19.10;61.70;21.30;94103.00;;;;10427510;28;45234;-57
2022/08/31 19:54:47;;;;;;;4.05;1.75;;;19.10;61.70;21.30;94114.00;;;;10430161;28;45398;-57
2022/08/31 20:00:09;;;;;;;2.58;1.50;;;19.10;61.70;21.30;94100.00;;;;10430756;28;45374;-56
2022/08/31 20:05:30;;;;;;;3.15;1.77;;;19.10;61.80;21.20;94100.00;;;;10430111;28;45862;-57
2022/08/31 20:10:51;;;;;;;2.33;1.33;;;19.10;61.80;21.20;94106.00;;;;10444545;28;45386;-57
2022/08/31 20:16:13;;;;;;;2.10;1.27;;;19.10;61.80;21.20;94107.00;;;;10459522;28;45950;-57
2022/08/31 20:21:39;;;;;;;2.97;1.45;;;19.10;61.80;21.30;94107.00;;;;10472611;28;46170;-56
2022/08/31 20:27:01;;;;;;;3.35;1.40;;;19.10;61.90;21.20;94089.00;;;;10462095;28;45172;-58
2022/08/31 20:32:22;;;;;;;2.75;1.35;;;19.10;61.80;21.20;94107.00;;;;10428656;28;45831;-57
2022/08/31 20:37:42;;;;;;;2.97;1.15;;;19.10;61.80;21.20;94103.00;;;;10443427;28;45864;-55
2022/08/31 20:43:07;;;;;;;2.92;1.30;;;19.10;61.80;21.20;94111.00;;;;10440849;28;45360;-56
2022/08/31 20:54:06;;;;;;;2.72;1.40;;;19.10;62.60;21.20;94114.00;;;;10445058;28;45089;-56
2022/08/31 20:59:30;;;;;;;1.70;1.00;;;19.10;61.80;21.20;94109.00;;;;10445071;28;45177;-57
2022/08/31 21:04:51;;;;;;;1.48;0.98;;;19.10;61.80;21.20;94099.00;;;;10463454;28;46181;-54
2022/08/31 21:10:11;;;;;;;2.42;1.30;;;19.10;61.80;21.20;94114.00;;;;10444316;28;45226;-55
2022/08/31 21:15:33;;;;;;;2.80;1.15;;;19.10;61.70;21.20;94112.00;;;;10428865;28;45205;-57
2022/08/31 21:20:54;;;;;;;2.40;1.20;;;19.10;61.80;21.20;94101.00;;;;10429379;28;45171;-57
2022/08/31 21:26:20;;;;;;;2.78;1.27;;;19.10;61.80;21.20;94104.00;;;;10443386;28;45256;-56
2022/08/31 21:31:45;;;;;;;1.67;0.98;;;19.10;61.80;21.20;94112.00;;;;10428756;28;45117;-56
2022/08/31 21:37:07;;;;;;;2.97;1.30;;;19.10;61.80;21.20;94106.00;;;;10428199;28;45714;-56
2022/08/31 21:42:28;;;;;;;1.70;1.13;;;19.00;61.80;21.20;94085.00;;;;10429996;28;45345;-56
2022/08/31 21:47:50;;;;;;;1.65;1.33;;;19.00;61.80;21.20;94095.00;;;;10461166;28;45207;-57
2022/08/31 21:53:10;;;;;;;2.22;1.20;;;19.10;61.90;21.20;94095.00;;;;10436460;28;45269;-56
2022/08/31 21:58:31;;;;;;;1.17;0.85;;;19.00;61.80;21.20;94097.00;;;;10463606;28;45414;-56
2022/08/31 22:03:57;;;;;;;2.70;1.38;;;19.10;61.90;21.20;94086.00;;;;10451227;28;45171;-57
2022/08/31 22:09:21;;;;;;;2.30;1.20;;;19.00;61.80;21.20;94093.00;;;;10433528;28;45191;-57
2022/08/31 22:14:43;;;;;;;1.75;1.25;;;19.00;61.80;21.20;94095.00;;;;10462361;28;45338;-56
2022/08/31 22:20:06;;;;;;;1.98;1.13;;;19.00;61.80;21.10;94079.00;;;;10475045;28;45814;-56
2022/08/31 22:25:27;;;;;;;1.77;1.27;;;19.00;61.80;21.10;94086.00;;;;10474832;28;45219;-57
2022/08/31 22:30:48;;;;;;;1.92;1.20;;;19.00;61.80;21.10;94074.00;;;;10474271;28;45738;-57
2022/08/31 22:36:15;;;;;;;1.80;1.17;;;19.00;61.70;21.10;94078.00;;;;10474281;28;45148;-57
2022/08/31 22:41:37;;;;;;;2.33;1.30;;;19.00;61.80;21.20;94081.00;;;;10474024;28;45549;-57
2022/08/31 22:46:58;;;;;;;2.63;1.42;;;19.00;61.70;21.10;94078.00;;;;10468144;28;45160;-57
2022/08/31 22:52:20;;;;;;;2.53;1.10;;;19.00;62.40;21.10;94079.00;;;;10432955;28;45833;-58
2022/08/31 22:57:40;;;;;;;1.85;1.20;;;19.00;61.60;21.10;94075.00;;;;10452899;28;45122;-57
2022/08/31 23:03:01;;;;;;;1.40;1.15;;;19.00;61.60;21.10;94078.00;;;;10456063;28;45383;-57
2022/08/31 23:08:23;;;;;;;1.80;1.48;;;19.00;61.50;21.10;94059.00;;;;10432203;28;45726;-57
2022/08/31 23:13:54;;;;;;;2.08;1.13;;;19.00;61.50;21.10;94063.00;;;;10431582;28;45763;-57
2022/08/31 23:19:18;;;;;;;2.38;1.27;;;19.00;61.40;21.10;94057.00;;;;10431279;28;45224;-57
2022/08/31 23:24:43;;;;;;;1.65;1.30;;;19.00;61.50;21.10;94055.00;;;;10457193;28;45153;-58
2022/08/31 23:30:07;;;;;;;1.42;1.10;;;19.00;61.40;21.10;94061.00;;;;10430985;28;45782;-56
2022/08/31 23:35:28;;;;;;;1.52;1.30;;;19.00;61.40;21.10;94052.00;;;;10431605;28;45117;-57
2022/08/31 23:40:49;;;;;;;2.05;1.27;;;19.00;61.30;21.10;94043.00;;;;10461850;28;45451;-56
2022/08/31 23:46:11;;;;;;;2.20;1.35;;;19.00;61.30;21.10;94035.00;;;;10450944;28;46037;-57
2022/08/31 23:51:32;;;;;;;1.80;1.25;;;19.00;61.30;21.10;94040.00;;;;10430732;28;45272;-57
2022/08/31 23:56:56;;;;;;;1.60;1.05;;;19.00;61.30;21.10;94027.00;;;;10459209;28;45114;-56
